createdAt,value
2023-08-13T00:00:19.275Z,23.30
2023-08-13T00:02:48.947Z,23.30
2023-08-13T00:05:18.245Z,23.30
2023-08-13T00:07:47.348Z,23.30
2023-08-13T00:10:18.588Z,23.30
2023-08-13T00:12:50.647Z,23.30
2023-08-13T00:15:17.570Z,23.30
2023-08-13T00:17:44.425Z,23.30
2023-08-13T00:20:11.974Z,23.30
2023-08-13T00:22:38.849Z,23.30
2023-08-13T00:25:06.377Z,23.30
2023-08-13T00:27:35.480Z,23.30
2023-08-13T00:30:06.492Z,23.20
2023-08-13T00:32:33.551Z,23.20
2023-08-13T00:35:03.088Z,23.20
2023-08-13T00:37:32.221Z,23.20
2023-08-13T00:39:59.980Z,23.20
2023-08-13T00:42:27.131Z,23.20
2023-08-13T00:44:56.428Z,23.20
2023-08-13T00:47:28.605Z,23.20
2023-08-13T00:49:58.155Z,23.20
2023-08-13T00:52:27.434Z,23.10
2023-08-13T00:54:59.377Z,23.10
2023-08-13T00:57:28.684Z,23.10
2023-08-13T00:59:56.049Z,23.10
2023-08-13T01:02:28.644Z,23.10
2023-08-13T01:04:56.316Z,23.10
2023-08-13T01:07:33.872Z,23.10
2023-08-13T01:10:34.850Z,23.00
2023-08-13T01:13:24.988Z,23.00
2023-08-13T01:15:58.883Z,23.00
2023-08-13T01:18:27.988Z,22.90
2023-08-13T01:20:56.884Z,22.90
2023-08-13T01:23:26.185Z,22.90
2023-08-13T01:26:02.502Z,22.90
2023-08-13T01:29:11.532Z,22.90
2023-08-13T01:31:40.484Z,22.80
2023-08-13T01:34:13.785Z,22.80
2023-08-13T01:36:46.617Z,22.80
2023-08-13T01:39:18.670Z,22.80
2023-08-13T01:42:02.818Z,22.80
2023-08-13T01:44:31.908Z,22.80
2023-08-13T01:47:03.686Z,22.80
2023-08-13T01:49:32.732Z,22.80
2023-08-13T01:52:02.093Z,22.70
2023-08-13T01:54:29.106Z,22.80
2023-08-13T01:56:58.474Z,22.80
2023-08-13T01:59:27.957Z,22.80
2023-08-13T02:01:57.003Z,22.80
2023-08-13T02:04:23.875Z,22.80
2023-08-13T02:06:53.982Z,22.80
2023-08-13T02:09:25.360Z,22.80
2023-08-13T02:11:54.343Z,22.80
2023-08-13T02:14:25.973Z,22.70
2023-08-13T02:16:55.564Z,22.70
2023-08-13T02:19:25.024Z,22.60
2023-08-13T02:21:54.350Z,22.60
2023-08-13T02:24:21.426Z,22.60
2023-08-13T02:26:50.831Z,22.60
2023-08-13T02:29:20.167Z,22.50
2023-08-13T02:31:46.985Z,22.60
2023-08-13T02:34:13.836Z,22.50
2023-08-13T02:36:41.108Z,22.50
2023-08-13T02:39:09.540Z,22.50
2023-08-13T02:41:40.780Z,22.50
2023-08-13T02:44:10.200Z,22.50
2023-08-13T02:46:39.319Z,22.40
2023-08-13T02:49:10.867Z,22.40
2023-08-13T02:51:42.621Z,22.40
2023-08-13T02:54:11.786Z,22.40
2023-08-13T02:56:42.640Z,22.40
2023-08-13T02:59:10.044Z,22.40
2023-08-13T03:01:39.748Z,22.40
2023-08-13T03:04:09.360Z,22.40
2023-08-13T03:06:38.739Z,22.40
2023-08-13T03:09:08.418Z,22.40
2023-08-13T03:11:35.315Z,22.40
2023-08-13T03:14:04.351Z,22.30
2023-08-13T03:16:33.831Z,22.40
2023-08-13T03:19:03.300Z,22.30
2023-08-13T03:21:32.581Z,22.30
2023-08-13T03:24:01.525Z,22.30
2023-08-13T03:26:28.496Z,22.30
2023-08-13T03:28:57.341Z,22.20
2023-08-13T03:31:26.492Z,22.20
2023-08-13T03:34:03.059Z,22.20
2023-08-13T03:36:29.952Z,22.20
2023-08-13T03:38:59.373Z,22.20
2023-08-13T03:41:31.024Z,22.20
2023-08-13T03:43:57.938Z,22.10
2023-08-13T03:46:24.803Z,22.10
2023-08-13T03:48:56.657Z,22.10
2023-08-13T03:51:25.992Z,22.10
2023-08-13T03:53:57.428Z,22.10
2023-08-13T03:56:27.143Z,22.00
2023-08-13T03:58:54.011Z,22.00
2023-08-13T04:01:21.386Z,22.00
2023-08-13T04:03:54.018Z,22.00
2023-08-13T04:06:21.408Z,21.90
2023-08-13T04:08:48.629Z,21.90
2023-08-13T04:11:15.567Z,21.90
2023-08-13T04:13:44.940Z,21.80
2023-08-13T04:16:12.141Z,21.80
2023-08-13T04:18:39.708Z,21.70
2023-08-13T04:21:11.683Z,21.70
2023-08-13T04:23:39.226Z,21.80
2023-08-13T04:26:06.387Z,21.80
2023-08-13T04:28:35.861Z,21.80
2023-08-13T04:31:03.296Z,21.80
2023-08-13T04:33:37.717Z,21.80
2023-08-13T04:36:07.189Z,21.70
2023-08-13T04:38:36.648Z,21.70
2023-08-13T04:41:10.609Z,21.70
2023-08-13T04:43:43.442Z,21.70
2023-08-13T04:46:13.448Z,21.70
2023-08-13T04:48:51.753Z,21.70
2023-08-13T04:51:29.145Z,21.70
2023-08-13T04:53:59.628Z,21.70
2023-08-13T04:56:33.871Z,21.70
2023-08-13T04:59:02.306Z,21.70
2023-08-13T05:01:29.775Z,21.80
2023-08-13T05:04:00.916Z,21.80
2023-08-13T05:06:30.232Z,21.70
2023-08-13T05:08:59.155Z,21.70
2023-08-13T05:11:26.794Z,21.80
2023-08-13T05:13:55.886Z,21.70
2023-08-13T05:16:27.290Z,21.70
2023-08-13T05:18:55.408Z,21.80
2023-08-13T05:21:22.310Z,21.80
2023-08-13T05:23:56.366Z,21.80
2023-08-13T05:26:23.375Z,21.80
2023-08-13T05:28:55.146Z,21.90
2023-08-13T05:31:24.672Z,21.90
2023-08-13T05:33:54.884Z,21.90
2023-08-13T05:36:22.680Z,21.90
2023-08-13T05:38:54.589Z,21.90
2023-08-13T05:41:27.367Z,21.90
2023-08-13T05:43:54.768Z,22.00
2023-08-13T05:46:23.690Z,22.00
2023-08-13T05:48:52.974Z,22.00
2023-08-13T05:51:19.899Z,22.00
2023-08-13T05:53:51.345Z,22.00
2023-08-13T05:56:19.056Z,22.10
2023-08-13T05:58:50.303Z,22.10
2023-08-13T06:01:17.195Z,22.10
2023-08-13T06:03:44.141Z,22.10
2023-08-13T06:06:16.738Z,22.20
2023-08-13T06:08:45.853Z,22.20
2023-08-13T06:11:17.178Z,22.30
2023-08-13T06:13:46.453Z,22.30
2023-08-13T06:16:13.346Z,22.30
2023-08-13T06:18:47.309Z,22.30
2023-08-13T06:21:14.393Z,22.40
2023-08-13T06:23:43.617Z,22.40
2023-08-13T06:26:10.575Z,22.50
2023-08-13T06:28:38.594Z,22.50
2023-08-13T06:31:19.334Z,22.50
2023-08-13T06:33:55.569Z,22.50
2023-08-13T06:36:29.549Z,22.50
2023-08-13T06:38:56.880Z,22.60
2023-08-13T06:41:23.697Z,22.60
2023-08-13T06:43:54.156Z,22.60
2023-08-13T06:46:23.405Z,22.80
2023-08-13T06:48:50.243Z,22.70
2023-08-13T06:51:19.499Z,22.80
2023-08-13T06:53:53.462Z,22.80
2023-08-13T06:56:20.308Z,22.90
2023-08-13T06:58:49.603Z,22.90
2023-08-13T07:01:16.529Z,23.00
2023-08-13T07:03:45.986Z,23.00
2023-08-13T07:06:12.874Z,23.00
2023-08-13T07:08:39.824Z,23.10
2023-08-13T07:11:07.080Z,23.20
2023-08-13T07:13:33.939Z,23.20
2023-08-13T07:16:01.118Z,23.20
2023-08-13T07:18:28.005Z,23.30
2023-08-13T07:20:56.968Z,23.30
2023-08-13T07:23:23.859Z,23.30
2023-08-13T07:25:53.138Z,23.30
2023-08-13T07:28:20.066Z,23.30
2023-08-13T07:30:51.594Z,23.40
2023-08-13T07:33:18.535Z,23.40
2023-08-13T07:35:45.435Z,23.50
2023-08-13T07:38:12.477Z,23.50
2023-08-13T07:40:39.341Z,23.50
2023-08-13T07:43:06.223Z,23.50
2023-08-13T07:45:34.304Z,23.60
2023-08-13T07:48:06.163Z,23.60
2023-08-13T07:50:35.771Z,23.70
2023-08-13T07:53:07.630Z,23.70
2023-08-13T07:55:34.649Z,23.80
2023-08-13T07:58:01.533Z,23.80
2023-08-13T08:00:28.613Z,23.80
2023-08-13T08:02:55.501Z,23.90
2023-08-13T08:05:22.764Z,23.90
2023-08-13T08:07:49.950Z,23.90
2023-08-13T08:10:16.852Z,24.00
2023-08-13T08:12:48.303Z,24.00
2023-08-13T08:15:17.474Z,24.10
2023-08-13T08:17:46.630Z,24.20
2023-08-13T08:20:15.564Z,24.10
2023-08-13T08:22:42.599Z,24.20
2023-08-13T08:25:12.340Z,24.20
2023-08-13T08:27:39.364Z,24.30
2023-08-13T08:30:07.337Z,24.30
2023-08-13T08:32:36.241Z,24.30
2023-08-13T08:35:05.357Z,24.40
2023-08-13T08:37:37.987Z,24.40
2023-08-13T08:40:08.395Z,24.50
2023-08-13T08:42:37.373Z,24.50
2023-08-13T08:45:06.209Z,24.60
2023-08-13T08:47:35.578Z,24.70
2023-08-13T08:50:05.749Z,24.70
2023-08-13T08:52:39.912Z,24.80
2023-08-13T08:55:07.578Z,24.90
2023-08-13T08:57:35.063Z,24.90
2023-08-13T09:00:05.535Z,25.00
2023-08-13T09:02:33.097Z,25.10
2023-08-13T09:05:00.142Z,25.10
2023-08-13T09:07:33.683Z,25.20
2023-08-13T09:10:05.165Z,25.20
2023-08-13T09:12:44.251Z,25.30
2023-08-13T09:15:13.987Z,25.40
2023-08-13T09:17:43.001Z,25.40
2023-08-13T09:20:21.918Z,25.50
2023-08-13T09:22:51.213Z,25.60
2023-08-13T09:25:23.956Z,25.70
2023-08-13T09:27:58.498Z,25.70
2023-08-13T09:30:32.133Z,25.80
2023-08-13T09:33:01.247Z,25.80
2023-08-13T09:35:32.864Z,25.90
2023-08-13T09:38:02.236Z,25.90
2023-08-13T09:40:31.661Z,26.00
2023-08-13T09:43:00.508Z,26.00
2023-08-13T09:45:32.289Z,26.10
2023-08-13T09:48:11.956Z,26.10
2023-08-13T09:50:44.109Z,26.10
2023-08-13T09:53:15.861Z,26.10
2023-08-13T09:55:57.960Z,26.20
2023-08-13T09:58:29.534Z,26.20
2023-08-13T10:00:57.397Z,26.30
2023-08-13T10:03:28.981Z,26.30
2023-08-13T10:06:01.122Z,26.40
2023-08-13T10:08:33.341Z,26.40
2023-08-13T10:11:01.395Z,26.50
2023-08-13T10:13:31.000Z,26.50
2023-08-13T10:16:03.098Z,26.60
2023-08-13T10:18:34.266Z,26.60
2023-08-13T10:21:03.960Z,26.50
2023-08-13T10:23:40.931Z,26.70
2023-08-13T10:26:12.369Z,26.70
2023-08-13T10:28:41.413Z,26.80
2023-08-13T10:31:26.077Z,26.80
2023-08-13T10:34:10.529Z,26.80
2023-08-13T10:36:51.997Z,26.80
2023-08-13T10:39:38.079Z,26.90
2023-08-13T10:42:28.272Z,26.90
2023-08-13T10:45:09.847Z,26.90
2023-08-13T10:47:48.131Z,26.90
2023-08-13T10:50:19.913Z,26.90
2023-08-13T10:53:05.221Z,26.90
2023-08-13T10:55:42.892Z,26.90
2023-08-13T10:58:27.111Z,27.00
2023-08-13T11:01:00.597Z,27.00
2023-08-13T11:03:31.944Z,27.10
2023-08-13T11:06:05.877Z,27.20
2023-08-13T11:11:04.449Z,27.30
2023-08-13T11:13:33.752Z,27.30
2023-08-13T11:16:03.137Z,27.40
2023-08-13T11:18:37.124Z,27.50
2023-08-13T11:21:08.803Z,27.50
2023-08-13T11:23:40.511Z,27.50
2023-08-13T11:26:08.941Z,27.50
2023-08-13T11:28:35.842Z,27.60
2023-08-13T11:31:02.774Z,27.50
2023-08-13T11:33:30.204Z,27.50
2023-08-13T11:35:57.940Z,27.50
2023-08-13T11:38:27.662Z,27.50
2023-08-13T11:40:55.588Z,27.60
2023-08-13T11:43:29.323Z,27.60
2023-08-13T11:45:56.689Z,27.60
2023-08-13T11:48:28.451Z,27.70
2023-08-13T11:51:23.703Z,27.70
2023-08-13T11:53:51.561Z,27.60
2023-08-13T11:56:23.060Z,27.60
2023-08-13T11:58:54.486Z,27.60
2023-08-13T12:01:25.772Z,27.60
2023-08-13T12:03:56.619Z,27.60
2023-08-13T12:06:23.585Z,27.50
2023-08-13T12:08:53.436Z,27.50
2023-08-13T12:11:22.665Z,27.50
2023-08-13T12:13:56.383Z,27.60
2023-08-13T12:16:28.032Z,27.70
2023-08-13T12:18:58.345Z,27.80
2023-08-13T12:21:27.944Z,27.90
2023-08-13T12:23:57.146Z,27.90
2023-08-13T12:26:27.881Z,28.00
2023-08-13T12:28:54.962Z,28.10
2023-08-13T12:31:23.582Z,28.20
2023-08-13T12:33:55.261Z,28.30
2023-08-13T12:36:24.260Z,28.50
2023-08-13T12:38:51.213Z,28.70
2023-08-13T12:41:30.499Z,28.80
2023-08-13T12:44:05.560Z,28.90
2023-08-13T12:46:34.604Z,29.00
2023-08-13T12:49:06.089Z,29.10
2023-08-13T12:51:33.044Z,29.20
2023-08-13T12:54:02.504Z,29.20
2023-08-13T12:56:31.808Z,29.30
2023-08-13T12:58:58.753Z,29.40
2023-08-13T13:01:25.798Z,29.40
2023-08-13T13:03:52.739Z,29.40
2023-08-13T13:06:21.905Z,29.40
2023-08-13T13:08:48.810Z,29.40
2023-08-13T13:11:20.706Z,29.50
2023-08-13T13:13:47.703Z,29.70
2023-08-13T13:16:16.898Z,29.90
2023-08-13T13:18:44.920Z,30.20
2023-08-13T13:21:16.518Z,30.40
2023-08-13T13:23:43.443Z,30.70
2023-08-13T13:26:16.592Z,30.90
2023-08-13T13:28:45.406Z,31.00
2023-08-13T13:31:12.842Z,31.30
2023-08-13T13:33:42.287Z,31.40
2023-08-13T13:36:09.207Z,31.60
2023-08-13T13:38:38.701Z,31.70
2023-08-13T13:41:07.919Z,31.70
2023-08-13T13:43:36.838Z,31.60
2023-08-13T13:46:06.125Z,31.60
2023-08-13T13:48:35.348Z,31.50
2023-08-13T13:51:04.746Z,31.50
2023-08-13T13:53:34.077Z,31.60
2023-08-13T13:56:00.986Z,31.70
2023-08-13T13:58:28.220Z,31.80
2023-08-13T14:00:57.595Z,31.90
2023-08-13T14:03:27.474Z,32.00
2023-08-13T14:05:54.696Z,31.90
2023-08-13T14:08:23.824Z,31.90
2023-08-13T14:10:52.730Z,31.90
2023-08-13T14:13:19.530Z,31.80
2023-08-13T14:15:46.587Z,31.90
2023-08-13T14:18:17.665Z,31.80
2023-08-13T14:20:53.073Z,31.60
2023-08-13T14:23:22.422Z,31.50
2023-08-13T14:25:51.167Z,31.40
2023-08-13T14:28:20.404Z,31.30
2023-08-13T14:30:49.729Z,31.20
2023-08-13T14:33:16.661Z,31.10
2023-08-13T14:35:43.629Z,31.00
2023-08-13T14:38:15.228Z,30.90
2023-08-13T14:40:46.683Z,30.80
2023-08-13T14:43:13.699Z,30.70
2023-08-13T14:45:40.671Z,30.60
2023-08-13T14:48:09.871Z,30.50
2023-08-13T14:50:36.814Z,30.50
2023-08-13T14:53:05.910Z,30.40
2023-08-13T14:55:35.333Z,30.40
2023-08-13T14:58:02.250Z,30.40
2023-08-13T15:00:29.382Z,30.40
2023-08-13T15:02:59.045Z,30.40
2023-08-13T15:05:30.536Z,30.40
2023-08-13T15:07:57.480Z,30.40
2023-08-13T15:10:26.350Z,30.40
2023-08-13T15:12:55.457Z,30.60
2023-08-13T15:15:24.582Z,30.70
2023-08-13T15:17:51.614Z,30.90
2023-08-13T15:20:19.577Z,31.10
2023-08-13T15:22:49.036Z,31.20
2023-08-13T15:25:18.138Z,31.20
2023-08-13T15:27:49.400Z,31.40
2023-08-13T15:30:16.990Z,31.50
2023-08-13T15:32:44.447Z,31.60
2023-08-13T15:35:13.829Z,31.70
2023-08-13T15:37:40.804Z,31.80
2023-08-13T15:40:08.749Z,31.90
2023-08-13T15:42:36.235Z,32.10
2023-08-13T15:45:06.211Z,32.20
2023-08-13T15:47:35.612Z,32.30
2023-08-13T15:50:03.359Z,32.40
2023-08-13T15:52:30.368Z,32.50
2023-08-13T15:54:59.915Z,32.60
2023-08-13T15:57:26.793Z,32.80
2023-08-13T15:59:55.773Z,33.00
2023-08-13T16:02:22.570Z,33.30
2023-08-13T16:04:54.130Z,33.70
2023-08-13T16:07:25.331Z,34.00
2023-08-13T16:09:54.472Z,34.50
2023-08-13T16:12:21.335Z,34.90
2023-08-13T16:14:50.468Z,35.20
2023-08-13T16:17:17.535Z,35.50
2023-08-13T16:19:44.520Z,35.80
2023-08-13T16:22:16.498Z,36.00
2023-08-13T16:24:45.734Z,36.10
2023-08-13T16:27:12.588Z,36.00
2023-08-13T16:29:39.439Z,35.80
2023-08-13T16:32:20.282Z,35.50
2023-08-13T16:34:55.076Z,35.20
2023-08-13T16:37:21.982Z,34.80
2023-08-13T16:39:48.875Z,34.60
2023-08-13T16:42:15.916Z,34.30
2023-08-13T16:44:43.043Z,34.00
2023-08-13T16:47:14.484Z,33.70
2023-08-13T16:49:46.719Z,33.40
2023-08-13T16:52:13.766Z,33.00
2023-08-13T16:54:43.024Z,32.70
2023-08-13T16:57:18.118Z,32.40
2023-08-13T16:59:45.667Z,32.10
2023-08-13T17:02:12.796Z,31.90
2023-08-13T17:04:39.913Z,31.60
2023-08-13T17:07:06.922Z,31.40
2023-08-13T17:09:33.816Z,31.30
2023-08-13T17:12:05.208Z,31.10
2023-08-13T17:14:36.848Z,30.90
2023-08-13T17:17:13.134Z,30.70
2023-08-13T17:19:42.267Z,30.50
2023-08-13T17:22:11.263Z,30.30
2023-08-13T17:24:40.744Z,30.10
2023-08-13T17:27:10.212Z,30.00
2023-08-13T17:29:37.184Z,29.80
2023-08-13T17:32:10.727Z,29.70
2023-08-13T17:34:37.673Z,29.60
2023-08-13T17:37:05.285Z,29.50
2023-08-13T17:39:36.650Z,29.40
2023-08-13T17:42:06.382Z,29.30
2023-08-13T17:44:40.211Z,29.20
2023-08-13T17:47:09.237Z,29.20
2023-08-13T17:49:41.039Z,29.10
2023-08-13T17:52:10.184Z,29.00
2023-08-13T17:54:37.067Z,28.90
2023-08-13T17:57:06.260Z,28.90
2023-08-13T17:59:35.273Z,28.80
2023-08-13T18:02:05.374Z,28.70
2023-08-13T18:04:32.398Z,28.60
2023-08-13T18:07:01.543Z,28.60
2023-08-13T18:09:32.838Z,28.50
2023-08-13T18:12:02.312Z,28.40
2023-08-13T18:14:33.470Z,28.20
2023-08-13T18:17:02.689Z,28.20
2023-08-13T18:19:36.484Z,28.20
2023-08-13T18:22:03.724Z,28.10
2023-08-13T18:24:33.716Z,28.00
2023-08-13T18:27:02.764Z,28.00
2023-08-13T18:29:34.878Z,27.90
2023-08-13T18:32:01.785Z,27.80
2023-08-13T18:34:33.443Z,27.80
2023-08-13T18:37:00.431Z,27.80
2023-08-13T18:39:36.363Z,27.70
2023-08-13T18:42:05.924Z,27.60
2023-08-13T18:44:35.315Z,27.60
2023-08-13T18:47:04.458Z,27.50
2023-08-13T18:49:36.738Z,27.40
2023-08-13T18:52:03.775Z,27.40
2023-08-13T18:54:33.281Z,27.30
2023-08-13T18:57:05.535Z,27.20
2023-08-13T18:59:32.793Z,27.10
2023-08-13T19:01:59.608Z,27.00
2023-08-13T19:04:26.555Z,26.90
2023-08-13T19:06:53.536Z,26.80
2023-08-13T19:09:23.703Z,26.70
2023-08-13T19:11:51.002Z,26.70
2023-08-13T19:14:17.890Z,26.60
2023-08-13T19:16:49.785Z,26.50
2023-08-13T19:19:21.005Z,26.40
2023-08-13T19:21:47.889Z,26.40
2023-08-13T19:24:17.011Z,26.30
2023-08-13T19:26:46.451Z,26.20
2023-08-13T19:29:13.400Z,26.10
2023-08-13T19:31:42.921Z,26.00
2023-08-13T19:34:09.976Z,26.00
2023-08-13T19:36:36.972Z,25.90
2023-08-13T19:39:06.448Z,25.90
2023-08-13T19:41:33.419Z,25.80
2023-08-13T19:44:02.457Z,25.80
2023-08-13T19:46:31.815Z,25.70
2023-08-13T19:49:00.930Z,25.70
2023-08-13T19:51:28.107Z,25.70
2023-08-13T19:53:55.087Z,25.60
2023-08-13T19:56:22.359Z,25.60
2023-08-13T19:58:52.130Z,25.50
2023-08-13T20:01:24.119Z,25.40
2023-08-13T20:03:51.111Z,25.40
2023-08-13T20:06:20.582Z,25.30
2023-08-13T20:08:49.726Z,25.30
2023-08-13T20:11:16.616Z,25.20
2023-08-13T20:13:43.604Z,25.10
2023-08-13T20:16:10.544Z,25.00
2023-08-13T20:18:39.804Z,25.00
2023-08-13T20:21:09.344Z,24.90
2023-08-13T20:23:38.648Z,24.80
2023-08-13T20:26:05.768Z,24.80
2023-08-13T20:28:39.984Z,24.70
2023-08-13T20:31:07.176Z,24.70
2023-08-13T20:33:34.026Z,24.60
2023-08-13T20:36:05.646Z,24.50
2023-08-13T20:38:33.771Z,24.50
2023-08-13T20:41:02.988Z,24.40
2023-08-13T20:43:29.988Z,24.30
2023-08-13T20:45:56.983Z,24.30
2023-08-13T20:48:23.993Z,24.20
2023-08-13T20:50:51.438Z,24.20
2023-08-13T20:53:22.663Z,24.20
2023-08-13T20:55:52.218Z,24.10
2023-08-13T20:58:19.246Z,24.10
2023-08-13T21:00:53.372Z,24.10
2023-08-13T21:03:22.916Z,24.10
2023-08-13T21:05:52.835Z,24.10
2023-08-13T21:08:19.795Z,24.00
2023-08-13T21:10:49.129Z,23.90
2023-08-13T21:13:18.307Z,23.90
2023-08-13T21:15:50.015Z,23.80
2023-08-13T21:18:16.923Z,23.80
2023-08-13T21:20:46.041Z,23.80
2023-08-13T21:23:15.154Z,23.70
2023-08-13T21:25:42.012Z,23.70
2023-08-13T21:28:11.359Z,23.60
2023-08-13T21:30:45.090Z,23.60
2023-08-13T21:33:16.569Z,23.60
2023-08-13T21:35:48.587Z,23.50
2023-08-13T21:38:17.608Z,23.50
2023-08-13T21:40:46.801Z,23.50
2023-08-13T21:43:16.591Z,23.40
2023-08-13T21:45:45.864Z,23.40
2023-08-13T21:48:14.837Z,23.30
2023-08-13T21:50:42.854Z,23.30
2023-08-13T21:53:11.747Z,23.30
2023-08-13T21:55:38.662Z,23.20
2023-08-13T21:58:11.196Z,23.20
2023-08-13T22:00:40.182Z,23.20
2023-08-13T22:03:09.564Z,23.20
2023-08-13T22:05:47.095Z,23.20
2023-08-13T22:08:16.287Z,23.10
2023-08-13T22:10:46.494Z,23.10
2023-08-13T22:13:13.388Z,23.10
2023-08-13T22:15:40.375Z,23.10
2023-08-13T22:18:10.842Z,23.00
2023-08-13T22:20:37.750Z,23.00
2023-08-13T22:23:04.652Z,23.00
2023-08-13T22:25:34.576Z,22.90
2023-08-13T22:28:08.431Z,22.90
2023-08-13T22:30:37.853Z,22.80
2023-08-13T22:33:05.059Z,22.90
2023-08-13T22:35:34.238Z,22.80
2023-08-13T22:38:04.355Z,22.70
2023-08-13T22:40:33.782Z,22.70
2023-08-13T22:43:05.224Z,22.70
2023-08-13T22:45:32.148Z,22.60
2023-08-13T22:48:06.305Z,22.60
2023-08-13T22:50:38.353Z,22.70
2023-08-13T22:53:05.211Z,22.60
2023-08-13T22:55:34.528Z,22.50
2023-08-13T22:58:03.861Z,22.50
2023-08-13T23:00:37.585Z,22.50
2023-08-13T23:03:08.747Z,22.50
2023-08-13T23:05:42.293Z,22.50
2023-08-13T23:08:11.546Z,22.50
2023-08-13T23:10:42.951Z,22.40
2023-08-13T23:13:16.723Z,22.40
2023-08-13T23:15:43.828Z,22.30
2023-08-13T23:18:12.044Z,22.30
2023-08-13T23:20:39.013Z,22.30
2023-08-13T23:23:10.710Z,22.20
2023-08-13T23:25:37.635Z,22.20
2023-08-13T23:28:09.351Z,22.10
2023-08-13T23:30:43.686Z,22.10
2023-08-13T23:33:10.563Z,22.00
2023-08-13T23:35:39.889Z,22.00
2023-08-13T23:38:11.993Z,22.00
2023-08-13T23:40:41.255Z,22.00
2023-08-13T23:43:10.433Z,22.00
2023-08-13T23:45:40.511Z,22.00
2023-08-13T23:48:09.919Z,21.90
2023-08-13T23:50:50.381Z,21.90
2023-08-13T23:53:24.483Z,21.90
2023-08-13T23:55:51.305Z,21.90
2023-08-13T23:58:22.877Z,21.90
